createdAt,value
2022-11-15T00:01:44.167Z,11.48
2022-11-15T00:04:29.567Z,13.85
2022-11-15T00:07:40.473Z,14.68
2022-11-15T00:10:20.843Z,12.00
2022-11-15T00:13:12.561Z,12.32
2022-11-15T00:15:59.535Z,15.18
2022-11-15T00:18:50.343Z,10.23
2022-11-15T00:21:35.969Z,10.35
2022-11-15T00:24:21.397Z,14.02
2022-11-15T00:27:08.177Z,12.45
2022-11-15T00:29:54.323Z,11.18
2022-11-15T00:32:39.985Z,11.68
2022-11-15T00:35:25.158Z,10.82
2022-11-15T00:38:10.798Z,13.60
2022-11-15T00:40:55.968Z,16.77
2022-11-15T00:43:44.404Z,11.65
2022-11-15T00:46:29.794Z,11.27
2022-11-15T00:49:15.166Z,13.73
2022-11-15T00:52:00.681Z,11.27
2022-11-15T00:54:46.002Z,15.38
2022-11-15T00:57:31.534Z,11.10
2022-11-15T01:00:17.353Z,12.60
2022-11-15T01:03:02.958Z,14.13
2022-11-15T01:05:48.546Z,12.93
2022-11-15T01:08:34.210Z,12.77
2022-11-15T01:11:19.461Z,9.95
2022-11-15T01:14:04.714Z,9.27
2022-11-15T01:16:50.289Z,10.90
2022-11-15T01:19:35.661Z,14.10
2022-11-15T01:22:21.011Z,12.43
2022-11-15T01:25:06.651Z,11.45
2022-11-15T01:27:51.703Z,9.85
2022-11-15T01:30:37.799Z,11.10
2022-11-15T01:33:23.361Z,10.85
2022-11-15T01:36:14.647Z,9.65
2022-11-15T01:39:00.543Z,10.40
2022-11-15T01:41:45.573Z,12.50
2022-11-15T01:44:49.013Z,8.85
2022-11-15T01:47:39.770Z,9.80
2022-11-15T01:50:30.905Z,14.98
2022-11-15T01:53:17.131Z,8.90
2022-11-15T01:56:06.504Z,10.02
2022-11-15T01:58:53.578Z,11.38
2022-11-15T02:01:39.277Z,10.25
2022-11-15T02:04:31.271Z,12.27
2022-11-15T02:07:18.856Z,10.52
2022-11-15T02:10:20.268Z,8.43
2022-11-15T02:13:05.465Z,11.98
2022-11-15T02:16:10.039Z,8.85
2022-11-15T02:19:01.971Z,7.18
2022-11-15T02:22:02.437Z,8.63
2022-11-15T02:25:07.688Z,12.40
2022-11-15T02:28:11.505Z,11.45
2022-11-15T02:31:14.241Z,8.40
2022-11-15T02:34:14.636Z,8.10
2022-11-15T02:37:08.409Z,10.82
2022-11-15T02:40:23.117Z,9.45
2022-11-15T02:43:33.863Z,12.52
2022-11-15T02:46:48.084Z,10.43
2022-11-15T02:49:35.851Z,9.45
2022-11-15T02:52:23.641Z,7.88
2022-11-15T02:55:27.572Z,10.70
2022-11-15T02:58:34.196Z,8.00
2022-11-15T03:01:52.038Z,8.32
2022-11-15T03:04:53.740Z,6.68
2022-11-15T03:07:50.861Z,12.32
2022-11-15T03:11:01.901Z,6.88
2022-11-15T03:13:59.085Z,6.85
2022-11-15T03:17:04.563Z,7.45
2022-11-15T03:20:00.642Z,5.30
2022-11-15T03:22:48.532Z,8.20
2022-11-15T03:25:35.863Z,7.00
2022-11-15T03:28:31.873Z,6.43
2022-11-15T03:31:38.603Z,5.57
2022-11-15T03:34:42.169Z,9.27
2022-11-15T03:37:55.317Z,5.57
2022-11-15T03:40:43.989Z,6.90
2022-11-15T03:43:49.999Z,8.07
2022-11-15T03:46:44.226Z,7.20
2022-11-15T03:49:35.621Z,4.82
2022-11-15T03:52:22.936Z,5.78
2022-11-15T03:55:11.600Z,8.98
2022-11-15T03:57:59.894Z,4.07
2022-11-15T04:00:45.430Z,7.15
2022-11-15T04:03:31.193Z,4.10
2022-11-15T04:06:16.871Z,4.35
2022-11-15T04:09:02.284Z,4.43
2022-11-15T04:11:47.664Z,8.55
2022-11-15T04:14:33.305Z,6.70
2022-11-15T04:17:18.622Z,5.32
2022-11-15T04:20:24.007Z,7.18
2022-11-15T04:23:38.235Z,7.60
2022-11-15T04:26:24.591Z,4.70
2022-11-15T04:29:28.170Z,7.63
2022-11-15T04:32:13.624Z,4.20
2022-11-15T04:34:59.208Z,4.15
2022-11-15T04:37:49.097Z,3.90
2022-11-15T04:40:35.501Z,4.45
2022-11-15T04:43:20.701Z,5.60
2022-11-15T04:46:06.223Z,3.75
2022-11-15T04:48:58.983Z,5.90
2022-11-15T04:51:44.451Z,6.07
2022-11-15T04:54:30.037Z,4.40
2022-11-15T04:57:15.949Z,3.78
2022-11-15T05:00:01.421Z,3.70
2022-11-15T05:03:05.444Z,3.45
2022-11-15T05:05:50.917Z,3.88
2022-11-15T05:08:36.245Z,3.47
2022-11-15T05:11:21.909Z,6.82
2022-11-15T05:14:07.007Z,5.00
2022-11-15T05:16:52.356Z,4.75
2022-11-15T05:19:38.134Z,2.88
2022-11-15T05:22:24.073Z,2.97
2022-11-15T05:25:09.532Z,4.40
2022-11-15T05:27:55.074Z,4.35
2022-11-15T05:30:40.464Z,5.88
2022-11-15T05:33:25.918Z,7.32
2022-11-15T05:36:21.215Z,6.80
2022-11-15T05:39:09.222Z,6.30
2022-11-15T05:42:01.796Z,4.63
2022-11-15T05:44:50.494Z,5.32
2022-11-15T05:47:37.749Z,3.97
2022-11-15T05:50:23.740Z,5.55
2022-11-15T05:53:09.217Z,3.03
2022-11-15T05:55:54.797Z,5.53
2022-11-15T05:58:39.900Z,3.60
2022-11-15T06:01:27.005Z,4.57
2022-11-15T06:04:12.320Z,5.35
2022-11-15T06:07:00.018Z,6.63
2022-11-15T06:09:45.686Z,2.95
2022-11-15T06:12:31.237Z,4.38
2022-11-15T06:15:16.740Z,4.50
2022-11-15T06:18:02.858Z,4.05
2022-11-15T06:20:47.907Z,4.50
2022-11-15T06:23:34.972Z,3.42
2022-11-15T06:26:20.646Z,4.85
2022-11-15T06:29:06.112Z,2.78
2022-11-15T06:31:51.309Z,4.07
2022-11-15T06:34:37.037Z,2.65
2022-11-15T06:37:22.613Z,2.85
2022-11-15T06:40:10.443Z,3.90
2022-11-15T06:43:02.413Z,3.20
2022-11-15T06:45:47.874Z,6.15
2022-11-15T06:48:34.834Z,2.97
2022-11-15T06:51:21.012Z,7.03
2022-11-15T06:54:06.198Z,3.13
2022-11-15T06:56:51.716Z,6.25
2022-11-15T06:59:40.477Z,3.78
2022-11-15T07:02:26.183Z,4.68
2022-11-15T07:05:12.848Z,5.40
2022-11-15T07:07:59.036Z,3.60
2022-11-15T07:10:44.580Z,4.43
2022-11-15T07:13:35.736Z,5.18
2022-11-15T07:16:21.420Z,3.40
2022-11-15T07:19:06.855Z,5.15
2022-11-15T07:21:52.188Z,2.55
2022-11-15T07:24:37.588Z,3.92
2022-11-15T07:27:23.057Z,3.97
2022-11-15T07:30:09.025Z,3.50
2022-11-15T07:32:59.380Z,3.72
2022-11-15T07:35:47.421Z,3.50
2022-11-15T07:38:38.029Z,4.05
2022-11-15T07:41:26.730Z,2.85
2022-11-15T07:44:12.255Z,3.83
2022-11-15T07:46:59.096Z,3.90
2022-11-15T07:49:44.509Z,3.50
2022-11-15T07:52:29.830Z,2.40
2022-11-15T07:55:15.438Z,2.42
2022-11-15T07:58:04.645Z,2.95
2022-11-15T08:00:50.327Z,4.47
2022-11-15T08:03:36.292Z,4.25
2022-11-15T08:06:21.798Z,3.30
2022-11-15T08:09:07.232Z,2.60
2022-11-15T08:11:52.964Z,2.15
2022-11-15T08:14:38.477Z,4.50
2022-11-15T08:17:24.805Z,5.85
2022-11-15T08:20:11.041Z,3.13
2022-11-15T08:22:59.754Z,4.45
2022-11-15T08:25:45.129Z,4.30
2022-11-15T08:28:31.533Z,3.17
2022-11-15T08:31:19.193Z,1.98
2022-11-15T08:34:05.503Z,6.80
2022-11-15T08:36:50.711Z,4.07
2022-11-15T08:39:36.238Z,3.53
2022-11-15T08:42:21.870Z,2.28
2022-11-15T08:45:09.010Z,3.20
2022-11-15T08:47:54.750Z,2.20
2022-11-15T08:50:40.397Z,4.00
2022-11-15T08:53:25.602Z,4.47
2022-11-15T08:56:12.867Z,7.18
2022-11-15T08:58:58.140Z,2.95
2022-11-15T09:01:43.567Z,3.97
2022-11-15T09:04:29.355Z,2.75
2022-11-15T09:07:14.953Z,7.47
2022-11-15T09:10:00.638Z,3.35
2022-11-15T09:12:49.310Z,4.03
2022-11-15T09:15:34.687Z,3.00
2022-11-15T09:18:28.369Z,2.47
2022-11-15T09:21:14.220Z,4.90
2022-11-15T09:24:00.001Z,7.22
2022-11-15T09:26:45.552Z,2.88
2022-11-15T09:29:30.773Z,2.65
2022-11-15T09:32:16.327Z,2.00
2022-11-15T09:35:02.153Z,5.10
2022-11-15T09:37:51.033Z,6.88
2022-11-15T09:40:39.473Z,5.78
2022-11-15T09:43:27.429Z,2.08
2022-11-15T09:46:47.969Z,5.03
2022-11-15T09:49:42.218Z,5.63
2022-11-15T09:52:21.846Z,8.30
2022-11-15T09:54:54.794Z,5.35
2022-11-15T09:57:48.488Z,3.92
2022-11-15T10:03:16.208Z,5.85
2022-11-15T10:05:55.496Z,1.67
2022-11-15T10:08:49.758Z,5.68
2022-11-15T10:11:37.149Z,4.70
2022-11-15T10:14:18.099Z,3.33
2022-11-15T10:17:22.418Z,2.53
2022-11-15T10:20:12.711Z,5.63
2022-11-15T10:22:48.943Z,4.00
2022-11-15T10:25:20.287Z,5.45
2022-11-15T10:27:54.407Z,3.55
2022-11-15T10:30:22.023Z,4.57
2022-11-15T10:32:50.550Z,3.08
2022-11-15T10:35:24.520Z,4.05
2022-11-15T10:37:51.444Z,5.30
2022-11-15T10:40:26.340Z,4.85
2022-11-15T10:43:27.230Z,4.50
2022-11-15T10:45:54.080Z,4.88
2022-11-15T10:48:23.832Z,8.13
2022-11-15T10:50:53.077Z,5.05
2022-11-15T10:53:22.995Z,3.40
2022-11-15T10:55:52.458Z,3.80
2022-11-15T10:58:34.696Z,7.03
2022-11-15T11:01:16.215Z,6.70
2022-11-15T11:03:45.456Z,2.75
2022-11-15T11:06:19.239Z,3.38
2022-11-15T11:09:04.049Z,2.17
2022-11-15T11:11:50.775Z,4.97
2022-11-15T11:14:34.445Z,5.35
2022-11-15T11:17:19.846Z,3.30
2022-11-15T11:19:58.855Z,2.10
2022-11-15T11:22:31.474Z,2.20
2022-11-15T11:25:11.653Z,6.18
2022-11-15T11:27:58.304Z,3.55
2022-11-15T11:30:41.837Z,4.57
2022-11-15T11:33:19.714Z,3.33
2022-11-15T11:36:20.255Z,2.83
2022-11-15T11:39:11.600Z,4.95
2022-11-15T11:41:47.701Z,6.18
2022-11-15T11:44:26.197Z,2.03
2022-11-15T11:46:57.939Z,8.55
2022-11-15T11:49:30.809Z,3.85
2022-11-15T11:52:22.150Z,3.92
2022-11-15T11:55:33.641Z,4.70
2022-11-15T11:58:03.340Z,6.60
2022-11-15T12:00:35.222Z,1.80
2022-11-15T12:03:29.481Z,5.13
2022-11-15T12:06:03.214Z,6.50
2022-11-15T12:08:51.644Z,3.05
2022-11-15T12:11:44.755Z,6.90
2022-11-15T12:14:27.221Z,2.97
2022-11-15T12:16:54.311Z,3.10
2022-11-15T12:19:21.133Z,1.98
2022-11-15T12:21:55.563Z,7.82
2022-11-15T12:24:33.109Z,4.30
2022-11-15T12:27:23.396Z,3.53
2022-11-15T12:29:57.398Z,5.05
2022-11-15T12:32:36.486Z,2.42
2022-11-15T12:35:06.929Z,2.85
2022-11-15T12:37:41.530Z,4.03
2022-11-15T12:40:23.122Z,5.57
2022-11-15T12:43:11.322Z,2.33
2022-11-15T12:45:40.441Z,3.17
2022-11-15T12:48:19.172Z,2.00
2022-11-15T12:50:52.813Z,5.75
2022-11-15T12:53:25.572Z,3.67
2022-11-15T12:56:20.442Z,3.85
2022-11-15T12:59:06.401Z,3.78
2022-11-15T13:01:33.247Z,1.90
2022-11-15T13:04:22.438Z,2.47
2022-11-15T13:06:53.820Z,3.17
2022-11-15T13:09:38.830Z,3.67
2022-11-15T13:12:10.043Z,3.22
2022-11-15T13:15:02.569Z,3.97
2022-11-15T13:17:34.853Z,5.07
2022-11-15T13:20:07.514Z,5.35
2022-11-15T13:23:05.250Z,3.03
2022-11-15T13:25:52.224Z,1.95
2022-11-15T13:28:22.186Z,3.50
2022-11-15T13:30:48.999Z,2.92
2022-11-15T13:33:23.102Z,2.35
2022-11-15T13:35:57.723Z,1.63
2022-11-15T13:38:34.970Z,4.75
2022-11-15T13:41:18.397Z,2.90
2022-11-15T13:43:45.402Z,3.20
2022-11-15T13:46:21.909Z,2.50
2022-11-15T13:48:54.948Z,1.58
2022-11-15T13:51:29.801Z,3.15
2022-11-15T13:54:02.370Z,2.05
2022-11-15T13:56:31.934Z,2.95
2022-11-15T13:58:58.959Z,4.38
2022-11-15T14:01:29.950Z,1.88
2022-11-15T14:04:00.199Z,4.35
2022-11-15T14:06:30.046Z,2.65
2022-11-15T14:09:12.125Z,1.92
2022-11-15T14:11:51.378Z,1.67
2022-11-15T14:14:24.752Z,1.35
2022-11-15T14:16:57.140Z,1.50
2022-11-15T14:19:27.055Z,1.48
2022-11-15T14:22:30.711Z,1.50
2022-11-15T14:25:17.995Z,2.50
2022-11-15T14:28:05.952Z,2.10
2022-11-15T14:30:32.954Z,9.38
2022-11-15T14:32:59.774Z,2.35
2022-11-15T14:35:26.821Z,2.20
2022-11-15T14:37:53.648Z,1.95
2022-11-15T14:40:22.648Z,1.33
2022-11-15T14:42:50.594Z,2.28
2022-11-15T14:45:23.131Z,1.33
2022-11-15T14:47:49.991Z,1.98
2022-11-15T14:50:22.128Z,1.45
2022-11-15T14:52:49.883Z,1.38
2022-11-15T14:55:24.534Z,3.22
2022-11-15T14:57:51.431Z,3.67
2022-11-15T15:00:18.463Z,3.17
2022-11-15T15:02:46.899Z,2.30
2022-11-15T15:05:25.689Z,1.20
2022-11-15T15:07:54.267Z,2.03
2022-11-15T15:13:18.786Z,3.13
2022-11-15T15:15:46.130Z,2.85
2022-11-15T15:18:13.277Z,2.72
2022-11-15T15:20:41.706Z,3.65
2022-11-15T15:23:30.171Z,2.55
2022-11-15T15:25:57.189Z,3.05
2022-11-15T15:28:23.993Z,1.67
2022-11-15T15:30:50.887Z,1.40
2022-11-15T15:33:17.787Z,1.55
2022-11-15T15:35:44.713Z,2.55
2022-11-15T15:38:13.159Z,1.67
2022-11-15T15:40:40.077Z,1.58
2022-11-15T15:43:09.934Z,2.08
2022-11-15T15:45:40.442Z,1.30
2022-11-15T15:48:13.699Z,2.92
2022-11-15T15:50:40.901Z,3.10
2022-11-15T15:53:09.076Z,2.40
2022-11-15T15:55:35.976Z,2.80
2022-11-15T15:58:02.759Z,1.60
2022-11-15T16:00:29.791Z,2.25
2022-11-15T16:02:56.594Z,3.05
2022-11-15T16:05:23.838Z,1.58
2022-11-15T16:07:50.936Z,2.55
2022-11-15T16:10:29.466Z,1.60
2022-11-15T16:12:57.952Z,2.15
2022-11-15T16:15:27.684Z,3.00
2022-11-15T16:17:59.855Z,1.40
2022-11-15T16:20:45.855Z,1.38
2022-11-15T16:23:15.068Z,1.48
2022-11-15T16:25:43.719Z,1.88
2022-11-15T16:28:27.299Z,1.63
2022-11-15T16:31:04.818Z,2.20
2022-11-15T16:33:32.489Z,1.85
2022-11-15T16:35:59.549Z,1.95
2022-11-15T16:38:26.647Z,1.42
2022-11-15T16:40:53.503Z,1.90
2022-11-15T16:43:20.474Z,2.25
2022-11-15T16:45:50.553Z,3.67
2022-11-15T16:48:26.326Z,2.90
2022-11-15T16:50:57.830Z,3.13
2022-11-15T16:53:26.431Z,2.60
2022-11-15T16:55:53.767Z,2.67
2022-11-15T16:58:20.939Z,2.03
2022-11-15T17:00:52.802Z,2.10
2022-11-15T17:03:20.557Z,1.58
2022-11-15T17:05:47.393Z,4.45
2022-11-15T17:08:14.211Z,2.17
2022-11-15T17:10:44.281Z,2.30
2022-11-15T17:13:14.394Z,1.77
2022-11-15T17:15:41.334Z,2.58
2022-11-15T17:18:13.122Z,1.92
2022-11-15T17:20:42.114Z,2.15
2022-11-15T17:23:14.603Z,2.67
2022-11-15T17:25:42.134Z,13.45
2022-11-15T17:28:09.048Z,13.02
2022-11-15T17:30:35.962Z,7.65
2022-11-15T17:33:03.025Z,11.20
2022-11-15T17:35:29.897Z,8.32
2022-11-15T17:37:56.681Z,10.57
2022-11-15T17:40:23.515Z,5.93
2022-11-15T17:42:50.497Z,4.10
2022-11-15T17:45:17.492Z,8.15
2022-11-15T17:47:44.394Z,6.07
2022-11-15T17:50:11.820Z,5.05
2022-11-15T17:52:38.643Z,3.90
2022-11-15T17:55:06.003Z,9.40
2022-11-15T17:57:32.857Z,6.78
2022-11-15T17:59:59.984Z,3.10
2022-11-15T18:02:27.190Z,4.80
2022-11-15T18:04:54.371Z,5.40
2022-11-15T18:07:21.297Z,3.92
2022-11-15T18:09:48.342Z,3.58
2022-11-15T18:12:16.761Z,4.50
2022-11-15T18:14:44.136Z,2.75
2022-11-15T18:17:11.043Z,2.40
2022-11-15T18:19:37.970Z,6.22
2022-11-15T18:22:07.210Z,3.60
2022-11-15T18:24:35.885Z,3.22
2022-11-15T18:27:05.057Z,3.63
2022-11-15T18:29:35.615Z,4.40
2022-11-15T18:32:05.099Z,5.45
2022-11-15T18:34:33.710Z,4.88
2022-11-15T18:37:02.784Z,5.57
2022-11-15T18:39:29.947Z,2.97
2022-11-15T18:41:56.923Z,4.20
2022-11-15T18:44:23.761Z,7.93
2022-11-15T18:46:51.161Z,5.53
2022-11-15T18:49:19.735Z,4.00
2022-11-15T18:51:47.573Z,3.30
2022-11-15T18:54:17.041Z,4.40
2022-11-15T18:56:45.600Z,6.00
2022-11-15T18:59:12.916Z,8.65
2022-11-15T19:01:42.962Z,3.33
2022-11-15T19:04:17.441Z,4.13
2022-11-15T19:06:46.831Z,5.15
2022-11-15T19:09:16.253Z,3.85
2022-11-15T19:11:44.522Z,4.00
2022-11-15T19:14:16.742Z,5.10
2022-11-15T19:16:52.579Z,3.80
2022-11-15T19:19:26.155Z,3.40
2022-11-15T19:21:57.184Z,4.07
2022-11-15T19:24:24.568Z,7.45
2022-11-15T19:26:51.782Z,3.45
2022-11-15T19:29:20.940Z,5.57
2022-11-15T19:31:50.225Z,3.67
2022-11-15T19:34:18.096Z,3.88
2022-11-15T19:36:47.430Z,3.45
2022-11-15T19:39:18.105Z,4.15
2022-11-15T19:41:50.454Z,3.75
2022-11-15T19:44:19.095Z,4.43
2022-11-15T19:46:45.959Z,3.15
2022-11-15T19:49:14.041Z,3.40
2022-11-15T19:51:47.203Z,4.10
2022-11-15T19:54:16.919Z,4.18
2022-11-15T19:56:44.148Z,5.18
2022-11-15T19:59:11.953Z,3.13
2022-11-15T20:01:39.755Z,6.25
2022-11-15T20:04:08.273Z,4.82
2022-11-15T20:06:41.363Z,3.63
2022-11-15T20:09:11.753Z,3.45
2022-11-15T20:11:39.433Z,4.03
2022-11-15T20:14:07.890Z,3.25
2022-11-15T20:16:34.960Z,3.58
2022-11-15T20:19:02.029Z,3.88
2022-11-15T20:21:28.905Z,3.40
2022-11-15T20:23:56.551Z,4.10
2022-11-15T20:26:24.025Z,3.88
2022-11-15T20:28:50.854Z,4.35
2022-11-15T20:31:18.245Z,3.55
2022-11-15T20:33:45.942Z,3.80
2022-11-15T20:36:15.585Z,9.20
2022-11-15T20:38:43.428Z,7.72
2022-11-15T20:41:11.461Z,5.00
2022-11-15T20:43:38.658Z,7.55
2022-11-15T20:46:05.605Z,7.65
2022-11-15T20:48:32.877Z,8.32
2022-11-15T20:51:05.653Z,15.55
2022-11-15T20:53:32.658Z,13.73
2022-11-15T20:56:08.144Z,13.85
2022-11-15T20:58:36.281Z,14.15
2022-11-15T21:01:04.775Z,11.10
2022-11-15T21:03:32.199Z,11.82
2022-11-15T21:05:59.313Z,10.88
2022-11-15T21:08:26.233Z,11.57
2022-11-15T21:11:12.830Z,7.78
2022-11-15T21:13:39.789Z,7.95
2022-11-15T21:16:07.155Z,9.68
2022-11-15T21:18:34.376Z,8.77
2022-11-15T21:21:07.664Z,8.20
2022-11-15T21:23:34.639Z,7.03
2022-11-15T21:26:01.583Z,6.57
2022-11-15T21:28:28.426Z,5.90
2022-11-15T21:31:00.502Z,5.97
2022-11-15T21:33:28.274Z,7.30
2022-11-15T21:35:56.508Z,7.70
2022-11-15T21:38:24.470Z,7.28
2022-11-15T21:40:52.628Z,7.28
2022-11-15T21:43:20.599Z,6.03
2022-11-15T21:45:59.112Z,7.07
2022-11-15T21:48:27.324Z,6.75
2022-11-15T21:51:08.805Z,8.07
2022-11-15T21:53:35.837Z,9.48
2022-11-15T21:56:03.581Z,6.40
2022-11-15T21:58:31.810Z,8.80
2022-11-15T22:01:17.610Z,8.73
2022-11-15T22:03:45.305Z,7.60
2022-11-15T22:06:17.476Z,5.72
2022-11-15T22:08:46.027Z,6.05
2022-11-15T22:11:13.423Z,5.97
2022-11-15T22:13:40.340Z,5.10
2022-11-15T22:16:08.031Z,5.75
2022-11-15T22:18:35.046Z,7.00
2022-11-15T22:21:04.899Z,5.82
2022-11-15T22:23:33.313Z,6.88
2022-11-15T22:26:00.505Z,4.30
2022-11-15T22:28:27.365Z,7.07
2022-11-15T22:30:55.199Z,7.22
2022-11-15T22:33:24.239Z,5.03
2022-11-15T22:35:51.583Z,4.75
2022-11-15T22:38:18.898Z,5.53
2022-11-15T22:40:46.683Z,3.85
2022-11-15T22:43:15.499Z,5.18
2022-11-15T22:45:54.402Z,5.38
2022-11-15T22:48:23.937Z,6.00
2022-11-15T22:50:50.925Z,4.38
2022-11-15T22:53:18.792Z,4.53
2022-11-15T22:55:50.764Z,5.50
2022-11-15T22:58:17.744Z,3.92
2022-11-15T23:00:44.844Z,3.92
2022-11-15T23:03:11.841Z,5.32
2022-11-15T23:05:38.786Z,3.60
2022-11-15T23:08:05.940Z,5.90
2022-11-15T23:10:51.475Z,4.68
2022-11-15T23:13:18.850Z,4.03
2022-11-15T23:16:09.945Z,4.75
2022-11-15T23:18:41.761Z,4.38
2022-11-15T23:21:13.566Z,7.20
2022-11-15T23:23:40.810Z,8.23
2022-11-15T23:26:08.070Z,3.83
2022-11-15T23:28:35.749Z,3.00
2022-11-15T23:31:25.767Z,3.47
2022-11-15T23:33:58.526Z,3.30
2022-11-15T23:36:27.173Z,3.83
2022-11-15T23:38:54.262Z,5.28
2022-11-15T23:41:21.941Z,6.28
2022-11-15T23:43:48.752Z,3.20
2022-11-15T23:46:16.070Z,5.72
2022-11-15T23:48:43.426Z,3.75
2022-11-15T23:51:10.405Z,4.18
2022-11-15T23:53:37.190Z,3.05
2022-11-15T23:56:11.164Z,4.30
2022-11-15T23:58:38.079Z,3.15
